sensor_id;sensor_type;location;lat;lon;timestamp;P1;durP1;ratioP1;P2;durP2;ratioP2
36923;SDS011;22841;50.252;18.688;2023-12-22T00:00:02;25.67;;;7.60;;
36923;SDS011;22841;50.252;18.688;2023-12-22T00:02:30;18.45;;;5.45;;
36923;SDS011;22841;50.252;18.688;2023-12-22T00:04:56;15.20;;;4.15;;
36923;SDS011;22841;50.252;18.688;2023-12-22T00:07:22;16.27;;;4.85;;
36923;SDS011;22841;50.252;18.688;2023-12-22T00:09:48;15.15;;;3.65;;
36923;SDS011;22841;50.252;18.688;2023-12-22T00:12:14;9.45;;;2.65;;
36923;SDS011;22841;50.252;18.688;2023-12-22T00:14:40;9.75;;;2.65;;
36923;SDS011;22841;50.252;18.688;2023-12-22T00:17:07;8.52;;;2.10;;
36923;SDS011;22841;50.252;18.688;2023-12-22T00:19:33;9.43;;;3.45;;
36923;SDS011;22841;50.252;18.688;2023-12-22T00:21:59;8.45;;;3.00;;
36923;SDS011;22841;50.252;18.688;2023-12-22T00:24:25;9.55;;;2.63;;
36923;SDS011;22841;50.252;18.688;2023-12-22T00:26:51;8.18;;;2.28;;
36923;SDS011;22841;50.252;18.688;2023-12-22T00:29:17;11.05;;;1.90;;
36923;SDS011;22841;50.252;18.688;2023-12-22T00:31:43;8.45;;;2.72;;
36923;SDS011;22841;50.252;18.688;2023-12-22T00:34:09;20.83;;;3.33;;
36923;SDS011;22841;50.252;18.688;2023-12-22T00:36:35;10.77;;;3.58;;
36923;SDS011;22841;50.252;18.688;2023-12-22T00:39:01;14.82;;;4.20;;
36923;SDS011;22841;50.252;18.688;2023-12-22T00:41:28;7.82;;;2.33;;
36923;SDS011;22841;50.252;18.688;2023-12-22T00:43:54;9.15;;;3.95;;
36923;SDS011;22841;50.252;18.688;2023-12-22T00:46:20;8.57;;;4.00;;
36923;SDS011;22841;50.252;18.688;2023-12-22T00:48:46;7.80;;;2.53;;
36923;SDS011;22841;50.252;18.688;2023-12-22T00:51:12;14.25;;;5.13;;
36923;SDS011;22841;50.252;18.688;2023-12-22T00:53:39;7.80;;;3.15;;
36923;SDS011;22841;50.252;18.688;2023-12-22T00:56:05;13.57;;;4.53;;
36923;SDS011;22841;50.252;18.688;2023-12-22T00:58:31;13.75;;;3.63;;
36923;SDS011;22841;50.252;18.688;2023-12-22T01:00:57;16.13;;;5.88;;
36923;SDS011;22841;50.252;18.688;2023-12-22T01:03:23;19.17;;;6.10;;
36923;SDS011;22841;50.252;18.688;2023-12-22T01:05:49;17.90;;;4.85;;
36923;SDS011;22841;50.252;18.688;2023-12-22T01:08:15;17.67;;;4.78;;
36923;SDS011;22841;50.252;18.688;2023-12-22T01:10:42;14.15;;;4.30;;
36923;SDS011;22841;50.252;18.688;2023-12-22T01:13:08;17.88;;;3.15;;
36923;SDS011;22841;50.252;18.688;2023-12-22T01:15:34;10.25;;;2.80;;
36923;SDS011;22841;50.252;18.688;2023-12-22T01:18:00;8.43;;;2.72;;
36923;SDS011;22841;50.252;18.688;2023-12-22T01:20:26;7.70;;;2.55;;
36923;SDS011;22841;50.252;18.688;2023-12-22T01:22:52;11.50;;;4.18;;
36923;SDS011;22841;50.252;18.688;2023-12-22T01:25:18;6.57;;;2.10;;
36923;SDS011;22841;50.252;18.688;2023-12-22T01:27:44;13.52;;;2.90;;
36923;SDS011;22841;50.252;18.688;2023-12-22T01:30:11;8.68;;;2.58;;
36923;SDS011;22841;50.252;18.688;2023-12-22T01:32:37;6.50;;;2.03;;
36923;SDS011;22841;50.252;18.688;2023-12-22T01:35:03;6.18;;;2.10;;
36923;SDS011;22841;50.252;18.688;2023-12-22T01:37:35;14.45;;;2.40;;
36923;SDS011;22841;50.252;18.688;2023-12-22T01:40:02;10.68;;;3.05;;
36923;SDS011;22841;50.252;18.688;2023-12-22T01:42:29;10.40;;;3.13;;
36923;SDS011;22841;50.252;18.688;2023-12-22T01:44:55;7.43;;;2.47;;
36923;SDS011;22841;50.252;18.688;2023-12-22T01:47:21;9.63;;;1.73;;
36923;SDS011;22841;50.252;18.688;2023-12-22T01:49:47;8.80;;;2.80;;
36923;SDS011;22841;50.252;18.688;2023-12-22T01:52:14;10.18;;;2.95;;
36923;SDS011;22841;50.252;18.688;2023-12-22T01:54:41;8.63;;;2.55;;
36923;SDS011;22841;50.252;18.688;2023-12-22T01:57:08;9.98;;;2.30;;
36923;SDS011;22841;50.252;18.688;2023-12-22T01:59:37;8.82;;;3.05;;
36923;SDS011;22841;50.252;18.688;2023-12-22T02:02:03;8.23;;;2.10;;
36923;SDS011;22841;50.252;18.688;2023-12-22T02:04:30;5.70;;;1.85;;
36923;SDS011;22841;50.252;18.688;2023-12-22T02:06:58;6.00;;;1.73;;
36923;SDS011;22841;50.252;18.688;2023-12-22T02:09:26;6.90;;;2.08;;
36923;SDS011;22841;50.252;18.688;2023-12-22T02:11:52;13.25;;;2.67;;
36923;SDS011;22841;50.252;18.688;2023-12-22T02:14:18;10.00;;;2.53;;
36923;SDS011;22841;50.252;18.688;2023-12-22T02:16:46;8.10;;;1.92;;
36923;SDS011;22841;50.252;18.688;2023-12-22T02:22:04;7.25;;;2.35;;
36923;SDS011;22841;50.252;18.688;2023-12-22T02:24:31;8.13;;;2.70;;
36923;SDS011;22841;50.252;18.688;2023-12-22T02:27:04;8.45;;;2.17;;
36923;SDS011;22841;50.252;18.688;2023-12-22T02:29:35;11.23;;;2.50;;
36923;SDS011;22841;50.252;18.688;2023-12-22T02:32:07;5.50;;;2.35;;
36923;SDS011;22841;50.252;18.688;2023-12-22T02:34:39;6.97;;;2.85;;
36923;SDS011;22841;50.252;18.688;2023-12-22T02:37:08;6.70;;;2.03;;
36923;SDS011;22841;50.252;18.688;2023-12-22T02:39:36;15.60;;;2.60;;
36923;SDS011;22841;50.252;18.688;2023-12-22T02:42:03;9.63;;;2.00;;
36923;SDS011;22841;50.252;18.688;2023-12-22T02:44:31;6.57;;;1.92;;
36923;SDS011;22841;50.252;18.688;2023-12-22T02:46:57;8.85;;;2.83;;
36923;SDS011;22841;50.252;18.688;2023-12-22T02:49:23;11.70;;;2.55;;
36923;SDS011;22841;50.252;18.688;2023-12-22T02:51:49;8.27;;;2.13;;
36923;SDS011;22841;50.252;18.688;2023-12-22T02:54:15;10.45;;;2.00;;
36923;SDS011;22841;50.252;18.688;2023-12-22T02:56:41;10.75;;;2.38;;
36923;SDS011;22841;50.252;18.688;2023-12-22T02:59:08;8.98;;;2.38;;
36923;SDS011;22841;50.252;18.688;2023-12-22T03:01:35;7.28;;;2.38;;
36923;SDS011;22841;50.252;18.688;2023-12-22T03:04:01;6.65;;;2.63;;
36923;SDS011;22841;50.252;18.688;2023-12-22T03:06:27;11.15;;;2.20;;
36923;SDS011;22841;50.252;18.688;2023-12-22T03:08:53;13.07;;;2.35;;
36923;SDS011;22841;50.252;18.688;2023-12-22T03:11:19;12.45;;;2.42;;
36923;SDS011;22841;50.252;18.688;2023-12-22T03:13:45;12.68;;;3.30;;
36923;SDS011;22841;50.252;18.688;2023-12-22T03:16:12;13.40;;;3.85;;
36923;SDS011;22841;50.252;18.688;2023-12-22T03:18:38;15.80;;;4.10;;
36923;SDS011;22841;50.252;18.688;2023-12-22T03:21:05;25.38;;;5.90;;
36923;SDS011;22841;50.252;18.688;2023-12-22T03:23:31;33.78;;;8.93;;
36923;SDS011;22841;50.252;18.688;2023-12-22T03:25:57;34.05;;;6.72;;
36923;SDS011;22841;50.252;18.688;2023-12-22T03:28:23;25.90;;;6.30;;
36923;SDS011;22841;50.252;18.688;2023-12-22T03:30:49;22.92;;;7.03;;
36923;SDS011;22841;50.252;18.688;2023-12-22T03:33:15;12.13;;;4.57;;
36923;SDS011;22841;50.252;18.688;2023-12-22T03:35:41;10.65;;;3.20;;
36923;SDS011;22841;50.252;18.688;2023-12-22T03:38:07;12.65;;;2.97;;
36923;SDS011;22841;50.252;18.688;2023-12-22T03:40:33;7.97;;;2.90;;
36923;SDS011;22841;50.252;18.688;2023-12-22T03:42:59;13.82;;;2.75;;
36923;SDS011;22841;50.252;18.688;2023-12-22T03:45:25;19.40;;;4.22;;
36923;SDS011;22841;50.252;18.688;2023-12-22T03:47:51;15.05;;;4.28;;
36923;SDS011;22841;50.252;18.688;2023-12-22T03:50:17;16.10;;;3.67;;
36923;SDS011;22841;50.252;18.688;2023-12-22T03:52:43;11.57;;;4.22;;
36923;SDS011;22841;50.252;18.688;2023-12-22T03:55:09;13.32;;;4.60;;
36923;SDS011;22841;50.252;18.688;2023-12-22T03:57:35;13.95;;;4.95;;
36923;SDS011;22841;50.252;18.688;2023-12-22T04:00:02;14.13;;;3.67;;
36923;SDS011;22841;50.252;18.688;2023-12-22T04:02:29;18.55;;;4.85;;
36923;SDS011;22841;50.252;18.688;2023-12-22T04:04:55;28.15;;;6.20;;
36923;SDS011;22841;50.252;18.688;2023-12-22T04:07:21;16.42;;;4.95;;
36923;SDS011;22841;50.252;18.688;2023-12-22T04:09:47;22.55;;;5.93;;
36923;SDS011;22841;50.252;18.688;2023-12-22T04:12:13;29.42;;;7.13;;
36923;SDS011;22841;50.252;18.688;2023-12-22T04:14:39;20.95;;;4.00;;
36923;SDS011;22841;50.252;18.688;2023-12-22T04:17:05;25.15;;;4.97;;
36923;SDS011;22841;50.252;18.688;2023-12-22T04:19:31;13.77;;;2.70;;
36923;SDS011;22841;50.252;18.688;2023-12-22T04:21:58;17.33;;;2.60;;
36923;SDS011;22841;50.252;18.688;2023-12-22T04:24:24;2.92;;;1.10;;
36923;SDS011;22841;50.252;18.688;2023-12-22T04:26:50;3.10;;;0.95;;
36923;SDS011;22841;50.252;18.688;2023-12-22T04:29:16;2.83;;;0.70;;
36923;SDS011;22841;50.252;18.688;2023-12-22T04:31:42;0.95;;;0.60;;
36923;SDS011;22841;50.252;18.688;2023-12-22T04:34:08;6.82;;;1.08;;
36923;SDS011;22841;50.252;18.688;2023-12-22T04:36:35;3.47;;;0.90;;
36923;SDS011;22841;50.252;18.688;2023-12-22T04:39:01;3.63;;;0.77;;
36923;SDS011;22841;50.252;18.688;2023-12-22T04:41:27;2.53;;;0.65;;
36923;SDS011;22841;50.252;18.688;2023-12-22T04:43:53;12.32;;;0.90;;
36923;SDS011;22841;50.252;18.688;2023-12-22T04:46:19;3.80;;;0.80;;
36923;SDS011;22841;50.252;18.688;2023-12-22T04:48:45;2.25;;;0.85;;
36923;SDS011;22841;50.252;18.688;2023-12-22T04:51:11;5.30;;;0.73;;
36923;SDS011;22841;50.252;18.688;2023-12-22T04:53:38;1.27;;;0.75;;
36923;SDS011;22841;50.252;18.688;2023-12-22T04:56:04;1.85;;;0.70;;
36923;SDS011;22841;50.252;18.688;2023-12-22T04:58:30;6.85;;;1.00;;
36923;SDS011;22841;50.252;18.688;2023-12-22T05:00:56;2.28;;;0.70;;
36923;SDS011;22841;50.252;18.688;2023-12-22T05:03:22;2.03;;;1.10;;
36923;SDS011;22841;50.252;18.688;2023-12-22T05:05:48;5.32;;;2.72;;
36923;SDS011;22841;50.252;18.688;2023-12-22T05:08:14;3.97;;;2.10;;
36923;SDS011;22841;50.252;18.688;2023-12-22T05:10:41;6.95;;;2.55;;
36923;SDS011;22841;50.252;18.688;2023-12-22T05:13:07;2.60;;;1.30;;
36923;SDS011;22841;50.252;18.688;2023-12-22T05:15:33;1.40;;;1.10;;
36923;SDS011;22841;50.252;18.688;2023-12-22T05:17:59;2.20;;;1.52;;
36923;SDS011;22841;50.252;18.688;2023-12-22T05:20:25;3.90;;;2.00;;
36923;SDS011;22841;50.252;18.688;2023-12-22T05:22:51;4.18;;;1.70;;
36923;SDS011;22841;50.252;18.688;2023-12-22T05:25:18;5.85;;;2.30;;
36923;SDS011;22841;50.252;18.688;2023-12-22T05:27:44;8.60;;;2.50;;
36923;SDS011;22841;50.252;18.688;2023-12-22T05:30:10;16.63;;;5.68;;
36923;SDS011;22841;50.252;18.688;2023-12-22T05:32:37;9.55;;;2.50;;
36923;SDS011;22841;50.252;18.688;2023-12-22T05:35:03;18.77;;;4.93;;
36923;SDS011;22841;50.252;18.688;2023-12-22T05:37:29;8.65;;;3.00;;
36923;SDS011;22841;50.252;18.688;2023-12-22T05:39:55;18.50;;;3.65;;
36923;SDS011;22841;50.252;18.688;2023-12-22T05:42:21;18.00;;;2.88;;
36923;SDS011;22841;50.252;18.688;2023-12-22T05:44:47;19.05;;;4.53;;
36923;SDS011;22841;50.252;18.688;2023-12-22T05:47:15;9.98;;;2.47;;
36923;SDS011;22841;50.252;18.688;2023-12-22T05:49:42;14.98;;;3.15;;
36923;SDS011;22841;50.252;18.688;2023-12-22T05:52:08;15.27;;;3.03;;
36923;SDS011;22841;50.252;18.688;2023-12-22T05:54:37;14.40;;;3.85;;
36923;SDS011;22841;50.252;18.688;2023-12-22T05:57:04;23.48;;;6.25;;
36923;SDS011;22841;50.252;18.688;2023-12-22T05:59:32;17.23;;;3.88;;
36923;SDS011;22841;50.252;18.688;2023-12-22T06:02:00;12.35;;;2.45;;
36923;SDS011;22841;50.252;18.688;2023-12-22T06:04:26;11.40;;;2.15;;
36923;SDS011;22841;50.252;18.688;2023-12-22T06:06:52;20.77;;;4.60;;
36923;SDS011;22841;50.252;18.688;2023-12-22T06:09:19;21.33;;;5.28;;
36923;SDS011;22841;50.252;18.688;2023-12-22T06:11:46;26.50;;;6.00;;
36923;SDS011;22841;50.252;18.688;2023-12-22T06:14:12;39.92;;;9.05;;
36923;SDS011;22841;50.252;18.688;2023-12-22T06:16:38;25.85;;;7.45;;
36923;SDS011;22841;50.252;18.688;2023-12-22T06:19:05;29.85;;;7.22;;
36923;SDS011;22841;50.252;18.688;2023-12-22T06:21:31;17.80;;;7.53;;
36923;SDS011;22841;50.252;18.688;2023-12-22T06:23:58;21.95;;;7.88;;
36923;SDS011;22841;50.252;18.688;2023-12-22T06:26:24;24.58;;;7.65;;
36923;SDS011;22841;50.252;18.688;2023-12-22T06:28:50;21.65;;;8.25;;
36923;SDS011;22841;50.252;18.688;2023-12-22T06:31:17;24.50;;;8.10;;
36923;SDS011;22841;50.252;18.688;2023-12-22T06:33:47;34.90;;;12.65;;
36923;SDS011;22841;50.252;18.688;2023-12-22T06:36:23;50.90;;;18.45;;
36923;SDS011;22841;50.252;18.688;2023-12-22T06:38:51;71.57;;;27.67;;
36923;SDS011;22841;50.252;18.688;2023-12-22T06:41:22;40.10;;;15.05;;
36923;SDS011;22841;50.252;18.688;2023-12-22T06:43:58;26.60;;;12.13;;
36923;SDS011;22841;50.252;18.688;2023-12-22T06:46:27;19.10;;;6.65;;
36923;SDS011;22841;50.252;18.688;2023-12-22T06:48:55;19.65;;;6.75;;
36923;SDS011;22841;50.252;18.688;2023-12-22T06:51:26;25.17;;;7.03;;
36923;SDS011;22841;50.252;18.688;2023-12-22T06:53:54;20.93;;;6.63;;
36923;SDS011;22841;50.252;18.688;2023-12-22T06:56:24;19.58;;;8.10;;
36923;SDS011;22841;50.252;18.688;2023-12-22T06:58:52;20.95;;;8.13;;
36923;SDS011;22841;50.252;18.688;2023-12-22T07:01:19;20.58;;;9.98;;
36923;SDS011;22841;50.252;18.688;2023-12-22T07:03:53;16.40;;;5.50;;
36923;SDS011;22841;50.252;18.688;2023-12-22T07:06:20;19.35;;;7.13;;
36923;SDS011;22841;50.252;18.688;2023-12-22T07:11:41;29.90;;;10.10;;
36923;SDS011;22841;50.252;18.688;2023-12-22T07:14:09;23.55;;;8.73;;
36923;SDS011;22841;50.252;18.688;2023-12-22T07:16:36;34.78;;;10.77;;
36923;SDS011;22841;50.252;18.688;2023-12-22T07:19:02;39.88;;;11.77;;
36923;SDS011;22841;50.252;18.688;2023-12-22T07:21:29;40.03;;;12.70;;
36923;SDS011;22841;50.252;18.688;2023-12-22T07:23:55;35.88;;;10.52;;
36923;SDS011;22841;50.252;18.688;2023-12-22T07:26:23;31.17;;;12.23;;
36923;SDS011;22841;50.252;18.688;2023-12-22T07:28:49;30.70;;;8.48;;
36923;SDS011;22841;50.252;18.688;2023-12-22T07:31:16;28.30;;;8.93;;
36923;SDS011;22841;50.252;18.688;2023-12-22T07:33:43;22.63;;;5.68;;
36923;SDS011;22841;50.252;18.688;2023-12-22T07:36:09;15.68;;;5.88;;
36923;SDS011;22841;50.252;18.688;2023-12-22T07:38:35;14.15;;;5.13;;
36923;SDS011;22841;50.252;18.688;2023-12-22T07:41:02;22.67;;;4.30;;
36923;SDS011;22841;50.252;18.688;2023-12-22T07:43:28;23.08;;;5.32;;
36923;SDS011;22841;50.252;18.688;2023-12-22T07:45:55;20.00;;;6.25;;
36923;SDS011;22841;50.252;18.688;2023-12-22T07:48:21;20.27;;;7.78;;
36923;SDS011;22841;50.252;18.688;2023-12-22T07:50:47;35.65;;;8.57;;
36923;SDS011;22841;50.252;18.688;2023-12-22T07:53:13;16.67;;;4.88;;
36923;SDS011;22841;50.252;18.688;2023-12-22T07:55:39;24.80;;;5.80;;
36923;SDS011;22841;50.252;18.688;2023-12-22T07:58:05;18.88;;;6.20;;
36923;SDS011;22841;50.252;18.688;2023-12-22T08:00:32;27.38;;;5.35;;
36923;SDS011;22841;50.252;18.688;2023-12-22T08:02:59;15.48;;;5.15;;
36923;SDS011;22841;50.252;18.688;2023-12-22T08:05:26;17.00;;;6.70;;
36923;SDS011;22841;50.252;18.688;2023-12-22T08:07:52;18.40;;;5.63;;
36923;SDS011;22841;50.252;18.688;2023-12-22T08:10:18;15.52;;;5.35;;
36923;SDS011;22841;50.252;18.688;2023-12-22T08:12:44;17.48;;;4.65;;
36923;SDS011;22841;50.252;18.688;2023-12-22T08:15:10;24.02;;;6.57;;
36923;SDS011;22841;50.252;18.688;2023-12-22T08:17:37;11.02;;;4.88;;
36923;SDS011;22841;50.252;18.688;2023-12-22T08:20:19;9.32;;;2.67;;
36923;SDS011;22841;50.252;18.688;2023-12-22T08:22:49;7.38;;;2.50;;
36923;SDS011;22841;50.252;18.688;2023-12-22T08:25:16;6.13;;;1.83;;
36923;SDS011;22841;50.252;18.688;2023-12-22T08:27:45;13.75;;;2.65;;
36923;SDS011;22841;50.252;18.688;2023-12-22T08:30:12;5.20;;;2.70;;
36923;SDS011;22841;50.252;18.688;2023-12-22T08:32:39;8.52;;;2.00;;
36923;SDS011;22841;50.252;18.688;2023-12-22T08:35:06;6.97;;;2.45;;
36923;SDS011;22841;50.252;18.688;2023-12-22T08:37:32;4.68;;;2.38;;
36923;SDS011;22841;50.252;18.688;2023-12-22T08:39:58;5.38;;;2.20;;
36923;SDS011;22841;50.252;18.688;2023-12-22T08:42:25;5.82;;;2.33;;
36923;SDS011;22841;50.252;18.688;2023-12-22T08:44:51;4.57;;;1.42;;
36923;SDS011;22841;50.252;18.688;2023-12-22T08:47:18;11.82;;;2.70;;
36923;SDS011;22841;50.252;18.688;2023-12-22T08:49:44;8.68;;;1.88;;
36923;SDS011;22841;50.252;18.688;2023-12-22T08:52:10;8.80;;;2.78;;
36923;SDS011;22841;50.252;18.688;2023-12-22T08:54:36;7.38;;;2.30;;
36923;SDS011;22841;50.252;18.688;2023-12-22T08:57:02;13.60;;;3.08;;
36923;SDS011;22841;50.252;18.688;2023-12-22T08:59:28;10.60;;;4.13;;
36923;SDS011;22841;50.252;18.688;2023-12-22T09:01:54;10.98;;;4.13;;
36923;SDS011;22841;50.252;18.688;2023-12-22T09:04:20;9.77;;;3.88;;
36923;SDS011;22841;50.252;18.688;2023-12-22T09:06:48;14.73;;;4.57;;
36923;SDS011;22841;50.252;18.688;2023-12-22T09:09:15;11.40;;;4.00;;
36923;SDS011;22841;50.252;18.688;2023-12-22T09:11:41;12.57;;;4.28;;
36923;SDS011;22841;50.252;18.688;2023-12-22T09:14:07;13.40;;;4.30;;
36923;SDS011;22841;50.252;18.688;2023-12-22T09:16:35;13.55;;;5.53;;
36923;SDS011;22841;50.252;18.688;2023-12-22T09:19:02;14.85;;;5.82;;
36923;SDS011;22841;50.252;18.688;2023-12-22T09:21:28;11.75;;;3.13;;
36923;SDS011;22841;50.252;18.688;2023-12-22T09:23:55;9.32;;;2.97;;
36923;SDS011;22841;50.252;18.688;2023-12-22T09:26:21;4.72;;;1.85;;
36923;SDS011;22841;50.252;18.688;2023-12-22T09:28:47;8.65;;;2.55;;
36923;SDS011;22841;50.252;18.688;2023-12-22T09:31:13;6.10;;;2.30;;
36923;SDS011;22841;50.252;18.688;2023-12-22T09:33:40;6.50;;;2.08;;
36923;SDS011;22841;50.252;18.688;2023-12-22T09:36:07;6.18;;;2.10;;
36923;SDS011;22841;50.252;18.688;2023-12-22T09:38:34;6.72;;;2.67;;
36923;SDS011;22841;50.252;18.688;2023-12-22T09:41:01;5.50;;;1.95;;
36923;SDS011;22841;50.252;18.688;2023-12-22T09:43:27;15.00;;;3.58;;
36923;SDS011;22841;50.252;18.688;2023-12-22T09:45:54;13.98;;;4.30;;
36923;SDS011;22841;50.252;18.688;2023-12-22T09:48:21;12.73;;;3.83;;
36923;SDS011;22841;50.252;18.688;2023-12-22T09:50:53;13.73;;;4.03;;
36923;SDS011;22841;50.252;18.688;2023-12-22T09:53:20;8.98;;;3.47;;
36923;SDS011;22841;50.252;18.688;2023-12-22T09:55:47;6.75;;;3.28;;
36923;SDS011;22841;50.252;18.688;2023-12-22T09:58:15;10.93;;;2.75;;
36923;SDS011;22841;50.252;18.688;2023-12-22T10:00:42;17.80;;;4.22;;
36923;SDS011;22841;50.252;18.688;2023-12-22T10:03:09;16.23;;;6.43;;
36923;SDS011;22841;50.252;18.688;2023-12-22T10:05:38;11.82;;;4.38;;
36923;SDS011;22841;50.252;18.688;2023-12-22T10:08:05;13.68;;;5.28;;
36923;SDS011;22841;50.252;18.688;2023-12-22T10:10:32;13.07;;;4.57;;
36923;SDS011;22841;50.252;18.688;2023-12-22T10:12:58;15.95;;;4.72;;
36923;SDS011;22841;50.252;18.688;2023-12-22T10:15:25;15.57;;;5.40;;
36923;SDS011;22841;50.252;18.688;2023-12-22T10:17:52;22.25;;;5.88;;
36923;SDS011;22841;50.252;18.688;2023-12-22T10:20:19;14.85;;;5.60;;
36923;SDS011;22841;50.252;18.688;2023-12-22T10:22:45;13.50;;;3.38;;
36923;SDS011;22841;50.252;18.688;2023-12-22T10:25:14;7.25;;;3.22;;
36923;SDS011;22841;50.252;18.688;2023-12-22T10:27:42;10.32;;;2.30;;
36923;SDS011;22841;50.252;18.688;2023-12-22T10:30:09;4.45;;;1.83;;
36923;SDS011;22841;50.252;18.688;2023-12-22T10:32:41;4.72;;;2.00;;
36923;SDS011;22841;50.252;18.688;2023-12-22T10:35:08;5.32;;;2.17;;
36923;SDS011;22841;50.252;18.688;2023-12-22T10:37:34;5.38;;;2.35;;
36923;SDS011;22841;50.252;18.688;2023-12-22T10:40:05;5.75;;;1.73;;
36923;SDS011;22841;50.252;18.688;2023-12-22T10:42:31;5.13;;;2.20;;
36923;SDS011;22841;50.252;18.688;2023-12-22T10:44:58;10.85;;;1.50;;
36923;SDS011;22841;50.252;18.688;2023-12-22T10:47:24;1.83;;;1.00;;
36923;SDS011;22841;50.252;18.688;2023-12-22T10:49:50;3.25;;;1.20;;
36923;SDS011;22841;50.252;18.688;2023-12-22T10:52:17;5.13;;;1.77;;
36923;SDS011;22841;50.252;18.688;2023-12-22T10:54:44;3.45;;;1.98;;
36923;SDS011;22841;50.252;18.688;2023-12-22T10:57:11;5.35;;;1.58;;
36923;SDS011;22841;50.252;18.688;2023-12-22T10:59:43;7.18;;;1.77;;
36923;SDS011;22841;50.252;18.688;2023-12-22T11:02:16;8.88;;;2.05;;
36923;SDS011;22841;50.252;18.688;2023-12-22T11:04:48;4.95;;;2.38;;
36923;SDS011;22841;50.252;18.688;2023-12-22T11:07:26;5.75;;;1.60;;
36923;SDS011;22841;50.252;18.688;2023-12-22T11:09:55;11.52;;;3.63;;
36923;SDS011;22841;50.252;18.688;2023-12-22T11:12:25;7.28;;;3.10;;
36923;SDS011;22841;50.252;18.688;2023-12-22T11:14:54;5.77;;;3.10;;
36923;SDS011;22841;50.252;18.688;2023-12-22T11:17:21;4.18;;;3.33;;
36923;SDS011;22841;50.252;18.688;2023-12-22T11:19:53;12.35;;;3.83;;
36923;SDS011;22841;50.252;18.688;2023-12-22T11:22:20;7.82;;;3.53;;
36923;SDS011;22841;50.252;18.688;2023-12-22T11:24:48;11.57;;;4.10;;
36923;SDS011;22841;50.252;18.688;2023-12-22T11:27:18;7.95;;;3.35;;
36923;SDS011;22841;50.252;18.688;2023-12-22T11:29:47;8.30;;;3.83;;
36923;SDS011;22841;50.252;18.688;2023-12-22T11:32:17;9.90;;;4.20;;
36923;SDS011;22841;50.252;18.688;2023-12-22T11:34:46;6.47;;;2.25;;
36923;SDS011;22841;50.252;18.688;2023-12-22T11:37:13;14.63;;;4.32;;
36923;SDS011;22841;50.252;18.688;2023-12-22T11:39:41;6.10;;;2.40;;
36923;SDS011;22841;50.252;18.688;2023-12-22T11:42:08;9.77;;;2.90;;
36923;SDS011;22841;50.252;18.688;2023-12-22T11:44:58;6.38;;;2.50;;
36923;SDS011;22841;50.252;18.688;2023-12-22T11:47:24;6.70;;;1.92;;
36923;SDS011;22841;50.252;18.688;2023-12-22T11:49:51;6.78;;;2.28;;
36923;SDS011;22841;50.252;18.688;2023-12-22T11:52:17;11.20;;;2.70;;
36923;SDS011;22841;50.252;18.688;2023-12-22T11:54:50;8.45;;;2.08;;
36923;SDS011;22841;50.252;18.688;2023-12-22T11:59:53;6.55;;;2.53;;
36923;SDS011;22841;50.252;18.688;2023-12-22T12:02:42;7.78;;;2.45;;
36923;SDS011;22841;50.252;18.688;2023-12-22T12:05:19;11.23;;;2.53;;
36923;SDS011;22841;50.252;18.688;2023-12-22T12:07:46;7.20;;;2.03;;
36923;SDS011;22841;50.252;18.688;2023-12-22T12:15:34;6.95;;;1.73;;
36923;SDS011;22841;50.252;18.688;2023-12-22T12:18:01;2.60;;;1.42;;
36923;SDS011;22841;50.252;18.688;2023-12-22T12:20:27;5.57;;;2.13;;
36923;SDS011;22841;50.252;18.688;2023-12-22T12:22:54;11.15;;;2.30;;
36923;SDS011;22841;50.252;18.688;2023-12-22T12:25:23;8.93;;;2.63;;
36923;SDS011;22841;50.252;18.688;2023-12-22T12:28:00;13.32;;;2.80;;
36923;SDS011;22841;50.252;18.688;2023-12-22T12:33:06;5.70;;;2.72;;
36923;SDS011;22841;50.252;18.688;2023-12-22T12:35:37;7.72;;;2.22;;
36923;SDS011;22841;50.252;18.688;2023-12-22T12:38:03;9.18;;;1.60;;
36923;SDS011;22841;50.252;18.688;2023-12-22T12:40:30;4.85;;;1.60;;
36923;SDS011;22841;50.252;18.688;2023-12-22T12:42:59;8.55;;;2.20;;
36923;SDS011;22841;50.252;18.688;2023-12-22T12:45:26;7.95;;;2.78;;
36923;SDS011;22841;50.252;18.688;2023-12-22T12:50:22;3.13;;;1.70;;
36923;SDS011;22841;50.252;18.688;2023-12-22T12:52:51;5.18;;;1.73;;
36923;SDS011;22841;50.252;18.688;2023-12-22T12:55:19;3.90;;;2.13;;
36923;SDS011;22841;50.252;18.688;2023-12-22T12:57:49;5.97;;;2.30;;
36923;SDS011;22841;50.252;18.688;2023-12-22T13:39:45;7.45;;;2.00;;
36923;SDS011;22841;50.252;18.688;2023-12-22T13:47:23;9.63;;;3.20;;
36923;SDS011;22841;50.252;18.688;2023-12-22T13:49:50;5.63;;;2.13;;
36923;SDS011;22841;50.252;18.688;2023-12-22T14:10:33;11.90;;;4.18;;
36923;SDS011;22841;50.252;18.688;2023-12-22T14:18:11;5.68;;;2.40;;
36923;SDS011;22841;50.252;18.688;2023-12-22T14:42:52;14.25;;;5.82;;
36923;SDS011;22841;50.252;18.688;2023-12-22T14:53:45;10.77;;;4.30;;
36923;SDS011;22841;50.252;18.688;2023-12-22T14:56:11;15.18;;;4.47;;
36923;SDS011;22841;50.252;18.688;2023-12-22T15:06:59;11.35;;;4.38;;
36923;SDS011;22841;50.252;18.688;2023-12-22T15:12:11;52.28;;;12.45;;
36923;SDS011;22841;50.252;18.688;2023-12-22T15:30:13;10.93;;;3.15;;
36923;SDS011;22841;50.252;18.688;2023-12-22T15:43:56;15.38;;;4.60;;
36923;SDS011;22841;50.252;18.688;2023-12-22T15:46:22;15.88;;;4.25;;
36923;SDS011;22841;50.252;18.688;2023-12-22T15:48:48;13.52;;;4.95;;
36923;SDS011;22841;50.252;18.688;2023-12-22T15:51:14;15.50;;;4.93;;
36923;SDS011;22841;50.252;18.688;2023-12-22T15:53:40;20.10;;;6.20;;
36923;SDS011;22841;50.252;18.688;2023-12-22T15:56:09;21.05;;;6.50;;
36923;SDS011;22841;50.252;18.688;2023-12-22T15:58:37;20.38;;;7.28;;
36923;SDS011;22841;50.252;18.688;2023-12-22T16:01:05;25.50;;;7.75;;
36923;SDS011;22841;50.252;18.688;2023-12-22T16:03:32;26.45;;;8.65;;
36923;SDS011;22841;50.252;18.688;2023-12-22T16:06:02;35.97;;;9.30;;
36923;SDS011;22841;50.252;18.688;2023-12-22T16:08:29;36.38;;;8.50;;
36923;SDS011;22841;50.252;18.688;2023-12-22T16:10:55;41.28;;;12.85;;
36923;SDS011;22841;50.252;18.688;2023-12-22T16:13:21;24.45;;;9.20;;
36923;SDS011;22841;50.252;18.688;2023-12-22T16:15:50;17.60;;;4.82;;
36923;SDS011;22841;50.252;18.688;2023-12-22T16:18:16;21.80;;;6.95;;
36923;SDS011;22841;50.252;18.688;2023-12-22T16:20:42;15.38;;;5.53;;
36923;SDS011;22841;50.252;18.688;2023-12-22T16:23:08;18.67;;;6.35;;
36923;SDS011;22841;50.252;18.688;2023-12-22T16:25:34;17.90;;;6.47;;
36923;SDS011;22841;50.252;18.688;2023-12-22T16:28:00;24.00;;;8.43;;
36923;SDS011;22841;50.252;18.688;2023-12-22T16:30:26;21.48;;;7.43;;
36923;SDS011;22841;50.252;18.688;2023-12-22T16:32:53;26.83;;;9.23;;
36923;SDS011;22841;50.252;18.688;2023-12-22T16:35:19;18.27;;;6.32;;
36923;SDS011;22841;50.252;18.688;2023-12-22T16:37:45;17.63;;;5.50;;
36923;SDS011;22841;50.252;18.688;2023-12-22T16:40:11;18.20;;;5.95;;
36923;SDS011;22841;50.252;18.688;2023-12-22T16:42:38;17.65;;;5.68;;
36923;SDS011;22841;50.252;18.688;2023-12-22T16:45:05;14.30;;;4.32;;
36923;SDS011;22841;50.252;18.688;2023-12-22T16:47:32;14.60;;;4.50;;
36923;SDS011;22841;50.252;18.688;2023-12-22T16:49:58;17.85;;;5.18;;
36923;SDS011;22841;50.252;18.688;2023-12-22T16:52:25;14.93;;;5.40;;
36923;SDS011;22841;50.252;18.688;2023-12-22T16:54:52;15.40;;;5.50;;
36923;SDS011;22841;50.252;18.688;2023-12-22T16:57:19;18.85;;;5.50;;
36923;SDS011;22841;50.252;18.688;2023-12-22T16:59:45;17.90;;;5.85;;